Accueil
METAR-TAF:

METAR-TAF

Aéroports :

Toulon, France

Aéroport de Toulon-Hyères

latitude: 43-06N, longitude: 006-09E, altitude: 3 m

Observation

Le bulletin a été fait il y a 19 minutes, à 00:30 UTC
Vent 4 kt de sud-ouest
Température 17°C
Humidité 88%
Pression 1017 hPa
Visibilité 10 km ou plus
pas de nuages en-dessous de 1500 mètres et pas de cumulonimbus.

METAR: LFTH 240030Z AUTO 23004KT CAVOK 17/15 Q1017 NOSIG

Heure: 02:49 (00:49 UTC)

Prévision

Le bulletin a été fait il y a 4 heures et 49 minutes, à 20:00 UTC
Prévision valable du 23 à 21 UTC au 24 à 21 UTC
Vent 6 kt de ouest
Visibilité 10 km ou plus
pas de nuages en-dessous de 1500 mètres et pas de cumulonimbus.
Evoluant progressivement
du 24 à 06 UTC au 24 à 10 UTC
Vent 8 kt de sud-est

TAF: LFTH 232000Z 2321/2421 26006KT CAVOK BECMG 2406/2410 14008KT

Observations et prévisions météorologiques de plus de 4000 aéroports (messages METAR et TAF).

Les stations disponibles sont représentées par des disques jaunes et rouges sur la carte.

Passer la souris dessus pour voir le nom de la station.

Cliquer dessus pour voir les observations et prévisions météorologiques.

Pour changer de carte: cliquez sur les boutons verts avec une croix noire pour zoomer, sur le bouton vert avec un tiret pour effectuer un zoom arrière, ou sur les flèches vertes pour les cartes adjacentes.


METAR-TAF: